createdAt,value
2019-04-14T00:01:43.465Z,11.40
2019-04-14T00:04:20.346Z,8.57
2019-04-14T00:06:52.584Z,10.90
2019-04-14T00:09:25.173Z,9.73
2019-04-14T00:11:59.067Z,8.10
2019-04-14T00:14:31.499Z,10.73
2019-04-14T00:17:04.185Z,10.20
2019-04-14T00:19:36.907Z,10.03
2019-04-14T00:22:09.428Z,10.47
2019-04-14T00:24:40.997Z,10.73
2019-04-14T00:27:12.873Z,10.63
2019-04-14T00:29:45.680Z,9.37
2019-04-14T00:32:18.321Z,10.77
2019-04-14T00:35:21.099Z,11.73
2019-04-14T00:38:21.809Z,9.80
2019-04-14T00:41:09.397Z,11.37
2019-04-14T00:43:59.252Z,12.03
2019-04-14T00:46:36.778Z,10.13
2019-04-14T00:49:09.308Z,10.57
2019-04-14T00:51:42.359Z,9.93
2019-04-14T00:54:13.959Z,10.10
2019-04-14T00:56:45.537Z,11.27
2019-04-14T00:59:17.925Z,10.53
2019-04-14T01:01:50.501Z,10.43
2019-04-14T01:04:22.970Z,10.70
2019-04-14T01:06:55.489Z,10.83
2019-04-14T01:09:28.272Z,10.00
2019-04-14T01:12:00.192Z,10.43
2019-04-14T01:14:32.033Z,9.27
2019-04-14T01:17:04.769Z,11.77
2019-04-14T01:19:37.386Z,10.30
2019-04-14T01:22:09.518Z,10.27
2019-04-14T01:24:42.445Z,10.53
2019-04-14T01:27:14.586Z,11.10
2019-04-14T01:29:47.352Z,10.43
2019-04-14T01:32:19.737Z,9.90
2019-04-14T01:34:53.866Z,10.30
2019-04-14T01:37:24.792Z,10.77
2019-04-14T01:39:56.706Z,11.87
2019-04-14T01:42:28.943Z,10.43
2019-04-14T01:45:01.722Z,10.80
2019-04-14T01:47:46.947Z,11.90
2019-04-14T01:50:21.278Z,10.77
2019-04-14T01:53:05.855Z,9.83
2019-04-14T01:55:59.282Z,9.40
2019-04-14T01:58:53.417Z,11.00
2019-04-14T02:01:28.255Z,10.17
2019-04-14T02:04:00.652Z,9.70
2019-04-14T02:06:33.356Z,10.10
2019-04-14T02:09:08.037Z,11.47
2019-04-14T02:11:39.928Z,10.90
2019-04-14T02:14:12.532Z,11.40
2019-04-14T02:16:49.826Z,10.47
2019-04-14T02:19:17.715Z,11.10
2019-04-14T02:21:49.902Z,10.60
2019-04-14T02:24:22.089Z,10.77
2019-04-14T02:26:54.738Z,11.83
2019-04-14T02:29:27.532Z,10.00
2019-04-14T02:32:30.355Z,10.47
2019-04-14T02:34:57.431Z,10.20
2019-04-14T02:37:33.813Z,11.60
2019-04-14T02:42:42.020Z,11.20
2019-04-14T02:45:21.883Z,10.40
2019-04-14T02:50:17.755Z,9.57
2019-04-14T02:52:58.931Z,9.83
2019-04-14T02:55:23.321Z,11.23
2019-04-14T02:58:03.798Z,9.93
2019-04-14T03:00:43.709Z,11.07
2019-04-14T03:03:14.704Z,11.80
2019-04-14T03:05:47.788Z,10.30
2019-04-14T03:08:20.351Z,10.60
2019-04-14T03:10:47.988Z,11.70
2019-04-14T03:13:27.175Z,11.57
2019-04-14T03:15:55.112Z,10.57
2019-04-14T03:18:39.501Z,11.77
2019-04-14T03:24:37.607Z,10.90
2019-04-14T03:27:48.203Z,9.53
2019-04-14T03:33:18.428Z,11.43
2019-04-14T03:38:12.741Z,10.37
2019-04-14T03:40:44.601Z,9.37
2019-04-14T03:43:19.673Z,10.60
2019-04-14T03:50:56.641Z,10.77
2019-04-14T03:53:28.995Z,11.13
2019-04-14T03:56:29.088Z,10.23
2019-04-14T03:59:01.880Z,10.60
2019-04-14T04:01:34.546Z,10.60
2019-04-14T04:04:07.409Z,9.57
2019-04-14T04:06:39.946Z,10.57
2019-04-14T04:09:12.571Z,11.20
2019-04-14T04:11:45.523Z,10.27
2019-04-14T04:14:18.071Z,11.50
2019-04-14T04:17:14.725Z,12.17
2019-04-14T04:19:54.036Z,11.50
2019-04-14T04:22:43.488Z,10.03
2019-04-14T04:25:24.666Z,9.63
2019-04-14T04:28:21.132Z,10.33
2019-04-14T04:30:58.053Z,10.10
2019-04-14T04:33:58.624Z,9.10
2019-04-14T04:36:38.092Z,9.93
2019-04-14T04:39:17.078Z,10.63
2019-04-14T04:41:49.434Z,11.20
2019-04-14T04:44:22.322Z,9.40
2019-04-14T04:46:55.184Z,9.47
2019-04-14T04:49:29.202Z,10.47
2019-04-14T04:51:59.981Z,9.70
2019-04-14T04:54:32.077Z,10.90
2019-04-14T04:57:04.603Z,10.20
2019-04-14T04:59:36.690Z,12.90
2019-04-14T05:02:09.055Z,9.77
2019-04-14T05:04:41.574Z,9.10
2019-04-14T05:07:14.535Z,10.13
2019-04-14T05:10:04.681Z,10.33
2019-04-14T05:13:01.264Z,11.00
2019-04-14T05:16:06.821Z,10.47
2019-04-14T05:18:38.374Z,10.80
2019-04-14T05:21:10.393Z,10.20
2019-04-14T05:23:43.065Z,9.97
2019-04-14T05:26:15.558Z,10.87
2019-04-14T05:28:48.356Z,10.10
2019-04-14T05:31:20.724Z,11.27
2019-04-14T05:33:53.318Z,7.67
2019-04-14T05:36:25.948Z,8.90
2019-04-14T05:38:58.159Z,9.17
2019-04-14T05:41:30.839Z,10.53
2019-04-14T05:44:03.572Z,9.17
2019-04-14T05:46:55.664Z,8.00
2019-04-14T05:49:35.451Z,10.10
2019-04-14T05:52:01.284Z,7.80
2019-04-14T05:54:33.971Z,8.90
2019-04-14T05:57:06.615Z,8.53
2019-04-14T05:59:38.161Z,9.23
2019-04-14T06:02:09.737Z,9.70
2019-04-14T06:04:41.758Z,8.37
2019-04-14T06:07:13.620Z,9.03
2019-04-14T06:09:45.180Z,10.23
2019-04-14T06:12:16.832Z,9.67
2019-04-14T06:14:48.409Z,8.47
2019-04-14T06:17:20.081Z,7.70
2019-04-14T06:19:51.785Z,8.23
2019-04-14T06:22:23.345Z,8.90
2019-04-14T06:24:56.009Z,8.93
2019-04-14T06:27:27.450Z,9.00
2019-04-14T06:30:06.080Z,8.40
2019-04-14T06:32:44.990Z,8.30
2019-04-14T06:35:34.574Z,7.30
2019-04-14T06:38:16.385Z,8.77
2019-04-14T06:41:03.945Z,9.30
2019-04-14T06:43:35.539Z,9.03
2019-04-14T06:46:07.067Z,8.70
2019-04-14T06:48:38.573Z,8.30
2019-04-14T06:51:10.157Z,7.33
2019-04-14T06:53:41.656Z,8.33
2019-04-14T06:56:13.361Z,7.47
2019-04-14T06:58:45.133Z,7.10
2019-04-14T07:01:16.738Z,8.03
2019-04-14T07:03:48.246Z,6.40
2019-04-14T07:06:19.831Z,7.90
2019-04-14T07:08:51.337Z,6.13
2019-04-14T07:11:23.043Z,7.03
2019-04-14T07:13:54.617Z,6.50
2019-04-14T07:16:27.601Z,7.43
2019-04-14T07:18:59.334Z,7.37
2019-04-14T07:21:30.921Z,6.57
2019-04-14T07:24:02.444Z,7.20
2019-04-14T07:26:34.004Z,7.00
2019-04-14T07:29:05.629Z,7.00
2019-04-14T07:31:54.381Z,5.97
2019-04-14T07:34:44.780Z,6.60
2019-04-14T07:37:29.856Z,6.33
2019-04-14T07:40:15.059Z,7.00
2019-04-14T07:43:06.637Z,7.87
2019-04-14T07:45:47.098Z,5.87
2019-04-14T07:48:23.290Z,6.20
2019-04-14T07:51:01.979Z,5.67
2019-04-14T07:53:50.806Z,5.70
2019-04-14T07:56:50.352Z,5.50
2019-04-14T07:59:43.841Z,6.37
2019-04-14T08:02:33.121Z,7.73
2019-04-14T08:05:07.415Z,5.93
2019-04-14T08:07:39.033Z,6.90
2019-04-14T08:10:10.652Z,5.30
2019-04-14T08:12:42.240Z,6.70
2019-04-14T08:15:14.272Z,4.87
2019-04-14T08:17:45.876Z,6.30
2019-04-14T08:20:27.470Z,3.97
2019-04-14T08:22:50.792Z,6.30
2019-04-14T08:25:22.385Z,6.10
2019-04-14T08:27:53.895Z,7.10
2019-04-14T08:30:25.547Z,5.90
2019-04-14T08:32:57.100Z,6.23
2019-04-14T08:35:28.803Z,4.83
2019-04-14T08:38:00.328Z,6.27
2019-04-14T08:40:32.007Z,5.20
2019-04-14T08:43:21.876Z,4.97
2019-04-14T08:46:15.335Z,5.93
2019-04-14T08:48:54.198Z,4.07
2019-04-14T08:51:29.874Z,6.20
2019-04-14T08:54:20.328Z,5.90
2019-04-14T08:56:57.922Z,6.90
2019-04-14T08:59:58.492Z,6.63
2019-04-14T09:02:47.879Z,6.10
2019-04-14T09:05:39.682Z,6.70
2019-04-14T09:08:19.192Z,5.67
2019-04-14T09:10:54.218Z,6.23
2019-04-14T09:13:25.867Z,5.77
2019-04-14T09:15:57.486Z,5.07
2019-04-14T09:18:28.995Z,5.50
2019-04-14T09:21:01.624Z,6.80
2019-04-14T09:23:33.256Z,6.30
2019-04-14T09:26:04.918Z,7.83
2019-04-14T09:28:36.659Z,6.77
2019-04-14T09:31:08.324Z,7.20
2019-04-14T09:33:39.920Z,6.47
2019-04-14T09:36:11.628Z,5.50
2019-04-14T09:38:43.310Z,6.10
2019-04-14T09:41:14.905Z,5.97
2019-04-14T09:50:04.086Z,6.03
2019-04-14T10:14:15.419Z,6.63
2019-04-14T10:39:27.232Z,9.33
2019-04-14T10:45:18.378Z,9.10
2019-04-14T10:47:56.025Z,9.03
2019-04-14T10:50:31.184Z,8.90
2019-04-14T10:53:08.124Z,10.00
2019-04-14T11:16:28.443Z,9.87
2019-04-14T11:19:00.127Z,7.87
2019-04-14T11:21:41.887Z,8.87
2019-04-14T11:32:58.645Z,8.03
2019-04-14T11:35:52.099Z,8.27
2019-04-14T12:02:22.123Z,6.70
2019-04-14T12:04:57.763Z,4.53
2019-04-14T12:07:51.144Z,6.80
2019-04-14T12:10:26.421Z,8.33
2019-04-14T12:12:58.056Z,8.77
2019-04-14T12:15:29.725Z,8.20
2019-04-14T12:18:01.267Z,8.93
2019-04-14T12:20:35.960Z,8.47
2019-04-14T12:23:07.558Z,7.53
2019-04-14T12:25:39.170Z,8.60
2019-04-14T12:28:11.377Z,8.53
2019-04-14T12:30:44.290Z,8.90
2019-04-14T12:33:16.114Z,8.50
2019-04-14T12:35:47.710Z,8.90
2019-04-14T12:38:19.408Z,9.50
2019-04-14T12:40:52.691Z,9.13
2019-04-14T12:43:45.301Z,9.50
2019-04-14T12:46:31.065Z,8.33
2019-04-14T12:49:07.569Z,6.60
2019-04-14T12:51:56.449Z,9.20
2019-04-14T12:54:29.339Z,9.53
2019-04-14T12:57:01.003Z,10.07
2019-04-14T12:59:34.182Z,10.20
2019-04-14T13:02:14.198Z,10.20
2019-04-14T13:04:45.862Z,8.30
2019-04-14T13:07:18.529Z,9.10
2019-04-14T13:09:50.373Z,8.77
2019-04-14T13:17:09.042Z,8.03
2019-04-14T13:19:41.415Z,9.53
2019-04-14T13:22:17.931Z,10.13
2019-04-14T13:25:03.899Z,9.63
2019-04-14T13:34:50.402Z,9.30
2019-04-14T13:37:28.114Z,10.57
2019-04-14T13:39:59.871Z,10.83
2019-04-14T13:42:31.536Z,10.60
2019-04-14T13:45:03.201Z,9.20
2019-04-14T13:47:35.835Z,10.23
2019-04-14T13:50:08.583Z,11.10
2019-04-14T13:52:46.734Z,10.83
2019-04-14T13:55:14.781Z,10.67
2019-04-14T13:57:46.670Z,11.13
2019-04-14T14:00:20.041Z,9.40
2019-04-14T14:02:51.904Z,8.93
2019-04-14T14:05:34.387Z,9.53
2019-04-14T14:08:06.041Z,11.93
2019-04-14T14:10:37.564Z,10.40
2019-04-14T14:13:30.880Z,9.20
2019-04-14T14:16:22.266Z,11.83
2019-04-14T14:19:03.238Z,10.00
2019-04-14T14:23:16.417Z,10.47
2019-04-14T14:25:53.905Z,12.30
2019-04-14T14:28:25.377Z,11.60
2019-04-14T14:30:57.094Z,9.20
2019-04-14T14:33:28.703Z,9.47
2019-04-14T14:36:00.321Z,10.63
2019-04-14T14:38:31.837Z,11.57
2019-04-14T14:41:06.203Z,11.57
2019-04-14T14:43:38.197Z,11.80
2019-04-14T14:46:27.332Z,10.97
2019-04-14T14:49:04.471Z,10.03
2019-04-14T14:51:57.548Z,9.97
2019-04-14T14:54:31.086Z,11.30
2019-04-14T14:57:02.703Z,9.60
2019-04-14T14:59:34.484Z,9.63
2019-04-14T15:02:06.118Z,11.97
2019-04-14T15:04:41.850Z,10.10
2019-04-14T15:07:13.611Z,11.63
2019-04-14T15:09:45.266Z,11.47
2019-04-14T15:12:16.820Z,12.63
2019-04-14T15:14:48.560Z,10.30
2019-04-14T15:17:23.080Z,10.70
2019-04-14T15:19:54.676Z,7.60
2019-04-14T15:22:26.185Z,11.00
2019-04-14T15:24:57.934Z,8.27
2019-04-14T15:27:29.460Z,8.30
2019-04-14T15:30:01.018Z,10.03
2019-04-14T15:32:33.070Z,5.57
2019-04-14T15:35:05.184Z,8.57
2019-04-14T15:37:37.658Z,8.10
2019-04-14T15:40:09.577Z,7.77
2019-04-14T15:42:41.331Z,7.60
2019-04-14T15:45:14.120Z,7.37
2019-04-14T15:47:45.854Z,6.30
2019-04-14T15:50:17.591Z,7.43
2019-04-14T15:52:49.149Z,8.50
2019-04-14T15:55:20.654Z,7.73
2019-04-14T15:58:05.755Z,6.77
2019-04-14T16:00:56.336Z,7.90
2019-04-14T16:03:33.446Z,6.93
2019-04-14T16:06:23.406Z,6.23
2019-04-14T16:09:16.868Z,5.10
2019-04-14T16:12:09.832Z,5.70
2019-04-14T16:15:00.301Z,6.33
2019-04-14T16:17:51.339Z,6.83
2019-04-14T16:20:34.236Z,5.80
2019-04-14T16:23:05.778Z,6.50
2019-04-14T16:25:59.328Z,7.40
2019-04-14T16:28:38.922Z,6.28
2019-04-14T16:31:32.404Z,7.10
2019-04-14T16:34:25.943Z,7.50
2019-04-14T16:36:57.801Z,5.80
2019-04-14T16:39:31.405Z,6.57
2019-04-14T16:42:03.081Z,6.47
2019-04-14T16:44:34.730Z,6.53
2019-04-14T16:47:06.617Z,6.30
2019-04-14T16:49:38.286Z,5.50
2019-04-14T16:52:29.846Z,6.30
2019-04-14T16:55:26.167Z,3.83
2019-04-14T16:58:19.281Z,8.27
2019-04-14T17:00:55.292Z,7.20
2019-04-14T17:03:27.306Z,7.97
2019-04-14T17:05:58.895Z,5.70
2019-04-14T17:08:31.998Z,4.90
2019-04-14T17:11:05.443Z,8.40
2019-04-14T17:13:40.370Z,6.47
2019-04-14T17:16:35.274Z,6.33
2019-04-14T17:19:10.947Z,5.90
2019-04-14T17:22:04.596Z,5.13
2019-04-14T17:24:59.228Z,5.50
2019-04-14T17:27:38.333Z,7.20
2019-04-14T17:30:29.231Z,6.00
2019-04-14T17:33:34.979Z,4.87
2019-04-14T17:36:24.168Z,5.17
2019-04-14T17:39:11.210Z,6.50
2019-04-14T17:41:48.950Z,5.47
2019-04-14T17:44:45.514Z,5.67
2019-04-14T17:47:42.629Z,6.30
2019-04-14T17:50:46.283Z,6.07
2019-04-14T17:53:49.942Z,5.60
2019-04-14T17:56:39.679Z,6.00
2019-04-14T17:59:18.866Z,5.63
2019-04-14T18:02:09.600Z,7.53
2019-04-14T18:04:56.039Z,7.10
2019-04-14T18:07:46.759Z,6.63
2019-04-14T18:10:25.991Z,5.20
2019-04-14T18:13:13.630Z,5.90
2019-04-14T18:16:03.075Z,7.10
2019-04-14T18:19:02.883Z,6.37
2019-04-14T18:21:34.541Z,7.30
2019-04-14T18:24:06.714Z,6.40
2019-04-14T18:26:39.177Z,7.60
2019-04-14T18:29:29.999Z,6.70
2019-04-14T18:32:19.817Z,6.27
2019-04-14T18:35:09.471Z,6.80
2019-04-14T18:37:57.464Z,6.20
2019-04-14T18:40:38.069Z,6.83
2019-04-14T18:43:21.646Z,7.13
2019-04-14T18:46:24.113Z,6.57
2019-04-14T18:49:28.045Z,6.40
2019-04-14T18:52:33.299Z,7.40
2019-04-14T18:55:16.173Z,6.73
2019-04-14T18:58:13.616Z,6.33
2019-04-14T19:00:58.407Z,6.80
2019-04-14T19:03:30.240Z,5.87
2019-04-14T19:06:02.071Z,7.07
2019-04-14T19:08:33.883Z,6.40
2019-04-14T19:11:27.512Z,7.00
2019-04-14T19:13:59.547Z,6.70
2019-04-14T19:16:39.744Z,6.77
2019-04-14T19:19:09.724Z,5.80
2019-04-14T19:21:41.400Z,6.53
2019-04-14T19:24:15.749Z,7.13
2019-04-14T19:26:48.276Z,6.73
2019-04-14T19:29:20.043Z,6.27
2019-04-14T19:31:51.715Z,6.00
2019-04-14T19:34:23.339Z,7.50
2019-04-14T19:36:54.990Z,6.87
2019-04-14T19:39:26.729Z,6.67
2019-04-14T19:41:59.739Z,5.10
2019-04-14T19:44:32.298Z,6.63
2019-04-14T19:47:04.161Z,6.27
2019-04-14T19:49:35.879Z,6.90
2019-04-14T19:52:07.637Z,6.13
2019-04-14T19:54:39.717Z,5.93
2019-04-14T19:57:12.530Z,5.93
2019-04-14T19:59:44.614Z,5.90
2019-04-14T20:02:18.145Z,6.63
2019-04-14T20:04:51.957Z,6.17
2019-04-14T20:07:24.263Z,5.40
2019-04-14T20:09:56.373Z,7.17
2019-04-14T20:12:28.358Z,5.70
2019-04-14T20:15:00.601Z,5.10
2019-04-14T20:18:03.415Z,6.07
2019-04-14T20:21:03.126Z,5.13
2019-04-14T20:23:51.876Z,4.83
2019-04-14T20:26:47.872Z,4.10
2019-04-14T20:29:22.981Z,5.90
2019-04-14T20:32:11.439Z,4.87
2019-04-14T20:34:43.151Z,4.97
2019-04-14T20:37:15.000Z,5.00
2019-04-14T20:39:46.638Z,5.00
2019-04-14T20:42:18.246Z,5.03
2019-04-14T20:44:50.083Z,4.20
2019-04-14T20:47:22.452Z,3.37
2019-04-14T20:49:54.178Z,4.67
2019-04-14T20:52:25.847Z,4.40
2019-04-14T20:54:57.576Z,3.60
2019-04-14T20:57:29.294Z,3.97
2019-04-14T21:00:00.929Z,4.40
2019-04-14T21:02:53.018Z,3.50
2019-04-14T21:05:43.542Z,4.80
2019-04-14T21:08:40.847Z,3.40
2019-04-14T21:11:28.017Z,3.90
2019-04-14T21:14:33.582Z,3.80
2019-04-14T21:17:30.134Z,3.57
2019-04-14T21:20:35.450Z,3.00
2019-04-14T21:23:31.744Z,3.23
2019-04-14T21:26:10.641Z,2.47
2019-04-14T21:28:56.564Z,3.13
2019-04-14T21:31:56.002Z,1.93
2019-04-14T21:34:35.139Z,3.10
2019-04-14T21:37:28.294Z,3.57
2019-04-14T21:40:23.045Z,2.97
2019-04-14T21:42:54.716Z,2.50
2019-04-14T21:45:26.414Z,2.70
2019-04-14T21:47:58.029Z,3.83
2019-04-14T21:50:29.632Z,3.70
2019-04-14T21:53:08.009Z,3.37
2019-04-14T21:55:40.271Z,3.27
2019-04-14T21:58:23.434Z,3.40
2019-04-14T22:01:56.685Z,2.93
2019-04-14T22:04:49.242Z,4.47
2019-04-14T22:07:38.378Z,2.77
2019-04-14T22:10:32.487Z,2.80
2019-04-14T22:13:04.084Z,3.57
2019-04-14T22:15:35.727Z,2.40
2019-04-14T22:18:07.372Z,2.80
2019-04-14T22:20:38.933Z,2.37
2019-04-14T22:23:12.273Z,2.77
2019-04-14T22:25:46.148Z,3.07
2019-04-14T22:28:17.897Z,3.40
2019-04-14T22:30:49.396Z,2.57
2019-04-14T22:33:21.004Z,2.60
2019-04-14T22:35:52.478Z,3.30
2019-04-14T22:38:25.005Z,3.70
2019-04-14T22:40:56.542Z,3.97
2019-04-14T22:43:28.028Z,3.30
2019-04-14T22:46:03.814Z,3.60
2019-04-14T22:48:39.601Z,3.60
2019-04-14T22:51:11.183Z,3.03
2019-04-14T22:53:42.815Z,4.70
2019-04-14T22:56:14.610Z,3.93
2019-04-14T22:58:48.070Z,3.97
2019-04-14T23:01:28.804Z,4.40
2019-04-14T23:04:17.987Z,3.93
2019-04-14T23:07:06.896Z,4.60
2019-04-14T23:10:10.860Z,3.77
2019-04-14T23:13:13.395Z,4.23
2019-04-14T23:16:04.010Z,3.50
2019-04-14T23:18:52.683Z,2.53
2019-04-14T23:21:30.072Z,3.60
2019-04-14T23:24:20.508Z,2.83
2019-04-14T23:26:53.193Z,3.50
2019-04-14T23:29:24.890Z,3.33
2019-04-14T23:31:56.544Z,3.73
2019-04-14T23:34:28.128Z,2.60
2019-04-14T23:36:59.646Z,3.40
2019-04-14T23:39:31.111Z,3.60
2019-04-14T23:42:02.678Z,3.33
2019-04-14T23:44:34.272Z,3.93
2019-04-14T23:47:05.766Z,3.07
2019-04-14T23:49:37.318Z,3.00
2019-04-14T23:52:10.341Z,4.63
2019-04-14T23:54:41.902Z,3.10
2019-04-14T23:57:13.606Z,2.47
2019-04-14T23:59:45.082Z,2.90
